createdAt,value
2022-09-10T00:01:18.191Z,4.78
2022-09-10T00:03:46.232Z,5.00
2022-09-10T00:06:14.040Z,5.95
2022-09-10T00:08:41.954Z,5.65
2022-09-10T00:11:11.046Z,6.90
2022-09-10T00:13:40.735Z,5.75
2022-09-10T00:16:10.816Z,3.72
2022-09-10T00:18:40.593Z,5.90
2022-09-10T00:23:36.610Z,6.07
2022-09-10T00:26:12.183Z,6.00
2022-09-10T00:28:39.961Z,5.88
2022-09-10T00:31:07.639Z,6.60
2022-09-10T00:33:35.016Z,5.93
2022-09-10T00:36:14.282Z,5.85
2022-09-10T00:38:42.426Z,5.35
2022-09-10T00:41:09.785Z,4.60
2022-09-10T00:43:49.010Z,4.70
2022-09-10T00:46:25.460Z,3.45
2022-09-10T00:48:56.133Z,4.32
2022-09-10T00:51:26.855Z,4.32
2022-09-10T00:53:54.563Z,4.07
2022-09-10T00:56:22.258Z,4.07
2022-09-10T00:58:49.903Z,4.00
2022-09-10T01:01:19.789Z,4.03
2022-09-10T01:03:47.662Z,3.70
2022-09-10T01:06:16.009Z,3.70
2022-09-10T01:08:44.609Z,3.72
2022-09-10T01:11:34.634Z,4.45
2022-09-10T01:14:19.724Z,4.25
2022-09-10T01:16:57.676Z,3.35
2022-09-10T01:20:01.873Z,3.75
2022-09-10T01:22:47.729Z,3.67
2022-09-10T01:25:28.700Z,4.30
2022-09-10T01:28:01.807Z,3.13
2022-09-10T01:30:36.222Z,2.88
2022-09-10T01:33:09.566Z,3.17
2022-09-10T01:35:45.271Z,3.88
2022-09-10T01:38:15.377Z,3.58
2022-09-10T01:40:43.717Z,3.45
2022-09-10T01:43:16.278Z,3.55
2022-09-10T01:46:04.275Z,3.08
2022-09-10T01:48:59.950Z,5.80
2022-09-10T01:51:39.200Z,3.40
2022-09-10T01:54:24.947Z,2.50
2022-09-10T01:57:04.557Z,2.00
2022-09-10T01:59:39.841Z,2.05
2022-09-10T02:02:15.105Z,2.10
2022-09-10T02:04:46.170Z,1.95
2022-09-10T02:07:16.527Z,2.33
2022-09-10T02:09:44.207Z,2.30
2022-09-10T02:12:19.196Z,2.22
2022-09-10T02:15:02.944Z,1.90
2022-09-10T02:18:02.532Z,1.73
2022-09-10T02:20:31.470Z,1.50
2022-09-10T02:23:02.273Z,1.88
2022-09-10T02:25:35.026Z,1.50
2022-09-10T02:28:05.586Z,2.20
2022-09-10T02:33:01.708Z,1.33
2022-09-10T02:35:29.755Z,1.88
2022-09-10T02:37:58.412Z,1.80
2022-09-10T02:40:25.952Z,1.70
2022-09-10T02:42:53.398Z,1.65
2022-09-10T02:45:25.066Z,2.17
2022-09-10T02:47:55.036Z,2.15
2022-09-10T02:50:24.502Z,1.67
2022-09-10T02:52:52.652Z,1.95
2022-09-10T02:55:20.860Z,1.90
2022-09-10T02:57:48.415Z,1.70
2022-09-10T03:00:16.342Z,1.83
2022-09-10T03:02:43.773Z,1.90
2022-09-10T03:05:14.905Z,1.70
2022-09-10T03:07:43.160Z,1.95
2022-09-10T03:10:11.874Z,1.83
2022-09-10T03:12:39.448Z,2.25
2022-09-10T03:15:08.187Z,2.10
2022-09-10T03:17:35.405Z,1.77
2022-09-10T03:20:04.104Z,1.98
2022-09-10T03:22:32.973Z,2.10
2022-09-10T03:25:00.446Z,2.10
2022-09-10T03:27:27.747Z,1.60
2022-09-10T03:29:55.139Z,1.95
2022-09-10T03:32:23.653Z,1.85
2022-09-10T03:34:51.030Z,1.88
2022-09-10T03:37:18.780Z,1.90
2022-09-10T03:39:47.527Z,1.80
2022-09-10T03:42:16.785Z,2.38
2022-09-10T03:44:44.715Z,2.63
2022-09-10T03:47:13.123Z,2.83
2022-09-10T03:49:40.639Z,2.00
2022-09-10T03:52:12.703Z,2.42
2022-09-10T03:54:42.084Z,2.70
2022-09-10T03:57:10.746Z,2.42
2022-09-10T03:59:41.325Z,2.67
2022-09-10T04:02:11.396Z,2.85
2022-09-10T04:04:40.862Z,2.40
2022-09-10T04:07:10.269Z,2.40
2022-09-10T04:09:37.741Z,2.47
2022-09-10T04:12:05.371Z,2.50
2022-09-10T04:14:37.133Z,2.05
2022-09-10T04:17:07.474Z,2.17
2022-09-10T04:19:36.013Z,2.42
2022-09-10T04:22:03.362Z,1.80
2022-09-10T04:24:32.618Z,2.30
2022-09-10T04:27:01.738Z,2.05
2022-09-10T04:29:29.541Z,2.03
2022-09-10T04:31:58.823Z,1.75
2022-09-10T04:34:29.942Z,1.77
2022-09-10T04:36:57.970Z,1.77
2022-09-10T04:39:25.685Z,1.70
2022-09-10T04:41:53.021Z,1.83
2022-09-10T04:44:20.870Z,1.98
2022-09-10T04:46:48.481Z,1.88
2022-09-10T04:49:17.160Z,1.63
2022-09-10T04:51:44.952Z,1.75
2022-09-10T04:54:14.625Z,1.95
2022-09-10T04:56:44.037Z,2.22
2022-09-10T04:59:11.493Z,1.98
2022-09-10T05:01:39.202Z,1.92
2022-09-10T05:04:06.852Z,1.92
2022-09-10T05:06:38.311Z,1.65
2022-09-10T05:09:08.482Z,1.98
2022-09-10T05:11:37.359Z,2.10
2022-09-10T05:16:32.861Z,1.80
2022-09-10T05:19:00.268Z,2.00
2022-09-10T05:21:29.574Z,1.85
2022-09-10T05:23:58.645Z,2.25
2022-09-10T05:31:28.159Z,2.00
2022-09-10T05:33:56.278Z,2.53
2022-09-10T05:36:24.499Z,2.60
2022-09-10T05:38:51.855Z,2.83
2022-09-10T05:41:20.489Z,2.90
2022-09-10T05:43:50.368Z,2.65
2022-09-10T05:46:17.849Z,2.90
2022-09-10T05:48:49.469Z,2.42
2022-09-10T05:51:18.996Z,2.33
2022-09-10T05:53:48.006Z,2.22
2022-09-10T05:56:15.319Z,2.10
2022-09-10T05:58:45.388Z,2.38
2022-09-10T06:01:15.590Z,1.77
2022-09-10T06:03:44.499Z,1.93
2022-09-10T06:06:12.113Z,1.80
2022-09-10T06:08:43.908Z,1.83
2022-09-10T06:11:18.740Z,2.15
2022-09-10T06:13:50.870Z,2.40
2022-09-10T06:16:20.470Z,1.98
2022-09-10T06:18:47.877Z,2.30
2022-09-10T06:21:19.463Z,2.75
2022-09-10T06:23:54.761Z,2.38
2022-09-10T06:26:24.193Z,3.00
2022-09-10T06:28:58.076Z,2.70
2022-09-10T06:31:26.355Z,2.53
2022-09-10T06:33:54.839Z,2.67
2022-09-10T06:36:27.707Z,2.20
2022-09-10T06:38:57.926Z,2.38
2022-09-10T06:41:25.683Z,2.42
2022-09-10T06:44:05.958Z,2.22
2022-09-10T06:47:16.052Z,1.80
2022-09-10T06:49:29.786Z,1.83
2022-09-10T06:51:58.034Z,1.67
2022-09-10T06:54:26.625Z,1.60
2022-09-10T06:56:58.242Z,1.90
2022-09-10T06:59:28.061Z,1.70
2022-09-10T07:01:55.696Z,1.40
2022-09-10T07:04:23.154Z,1.65
2022-09-10T07:06:51.611Z,1.85
2022-09-10T07:09:18.966Z,2.00
2022-09-10T07:11:53.289Z,2.03
2022-09-10T07:14:20.952Z,1.85
2022-09-10T07:16:51.537Z,1.80
2022-09-10T07:19:21.041Z,1.40
2022-09-10T07:21:48.838Z,1.70
2022-09-10T07:24:17.119Z,2.00
2022-09-10T07:27:07.619Z,1.38
2022-09-10T07:29:36.485Z,1.20
2022-09-10T07:32:06.778Z,1.50
2022-09-10T07:34:34.875Z,2.40
2022-09-10T07:37:02.639Z,1.90
2022-09-10T07:39:31.666Z,1.10
2022-09-10T07:42:01.476Z,1.30
2022-09-10T07:44:30.844Z,1.38
2022-09-10T07:47:03.544Z,1.20
2022-09-10T07:49:33.584Z,1.23
2022-09-10T07:52:00.964Z,1.40
2022-09-10T07:54:38.779Z,2.15
2022-09-10T07:57:06.663Z,1.10
2022-09-10T07:59:35.279Z,2.15
2022-09-10T08:02:06.551Z,1.52
2022-09-10T08:04:37.717Z,1.40
2022-09-10T08:07:09.286Z,1.30
2022-09-10T08:09:38.677Z,1.10
2022-09-10T08:12:08.540Z,1.20
2022-09-10T08:14:38.185Z,1.30
2022-09-10T08:17:05.992Z,1.40
2022-09-10T08:19:39.910Z,2.03
2022-09-10T08:22:11.494Z,2.20
2022-09-10T08:24:44.877Z,1.40
2022-09-10T08:27:12.375Z,1.10
2022-09-10T08:29:40.247Z,0.82
2022-09-10T08:32:12.346Z,0.98
2022-09-10T08:34:41.883Z,1.20
2022-09-10T08:37:13.370Z,0.80
2022-09-10T08:42:15.969Z,1.23
2022-09-10T08:44:50.124Z,1.00
2022-09-10T08:47:27.187Z,0.70
2022-09-10T08:50:04.195Z,0.98
2022-09-10T08:52:40.036Z,0.85
2022-09-10T08:55:23.479Z,0.60
2022-09-10T08:57:55.990Z,0.70
2022-09-10T09:00:25.153Z,1.13
2022-09-10T09:02:57.929Z,0.93
2022-09-10T09:05:28.332Z,0.85
2022-09-10T09:07:59.647Z,0.95
2022-09-10T09:10:43.348Z,0.80
2022-09-10T09:13:28.983Z,0.82
2022-09-10T09:16:08.105Z,0.80
2022-09-10T09:18:46.771Z,0.93
2022-09-10T09:21:17.653Z,0.80
2022-09-10T09:24:12.131Z,0.70
2022-09-10T09:26:46.408Z,0.90
2022-09-10T09:29:19.204Z,0.90
2022-09-10T09:31:51.108Z,1.00
2022-09-10T09:34:22.687Z,1.55
2022-09-10T09:36:56.930Z,0.93
2022-09-10T09:39:30.576Z,0.73
2022-09-10T09:42:05.889Z,0.60
2022-09-10T09:44:41.085Z,0.70
2022-09-10T09:47:09.360Z,0.50
2022-09-10T09:49:41.804Z,0.90
2022-09-10T09:52:19.503Z,2.13
2022-09-10T09:57:38.714Z,3.08
2022-09-10T10:00:36.705Z,4.80
2022-09-10T10:03:13.178Z,2.53
2022-09-10T10:05:40.586Z,0.70
2022-09-10T10:08:27.901Z,1.08
2022-09-10T10:10:55.764Z,1.20
2022-09-10T10:13:23.751Z,1.00
2022-09-10T10:15:50.986Z,0.70
2022-09-10T10:18:31.868Z,0.65
2022-09-10T10:21:17.707Z,0.60
2022-09-10T10:23:47.357Z,1.05
2022-09-10T10:26:26.408Z,0.70
2022-09-10T10:28:58.723Z,0.88
2022-09-10T10:31:37.382Z,1.02
2022-09-10T10:34:23.536Z,1.17
2022-09-10T10:37:01.063Z,0.90
2022-09-10T10:39:46.334Z,0.90
2022-09-10T10:42:21.316Z,0.93
2022-09-10T10:45:18.154Z,2.75
2022-09-10T10:47:52.020Z,1.65
2022-09-10T10:50:28.884Z,1.02
2022-09-10T10:53:18.531Z,1.20
2022-09-10T10:58:34.285Z,1.15
2022-09-10T11:01:05.692Z,1.08
2022-09-10T11:03:42.997Z,1.67
2022-09-10T11:06:17.425Z,1.50
2022-09-10T11:08:50.356Z,1.65
2022-09-10T11:11:23.574Z,1.10
2022-09-10T11:13:56.836Z,1.02
2022-09-10T11:16:32.156Z,0.70
2022-09-10T11:19:05.951Z,0.95
2022-09-10T11:21:39.875Z,1.17
2022-09-10T11:24:16.833Z,0.82
2022-09-10T11:26:51.207Z,1.45
2022-09-10T11:29:31.607Z,1.20
2022-09-10T11:32:06.615Z,3.13
2022-09-10T11:34:41.374Z,4.05
2022-09-10T11:37:17.101Z,0.95
2022-09-10T11:39:49.254Z,0.88
2022-09-10T11:42:23.562Z,0.40
2022-09-10T11:44:59.676Z,1.88
2022-09-10T11:47:31.514Z,1.05
2022-09-10T11:50:04.452Z,0.80
2022-09-10T11:52:34.877Z,0.90
2022-09-10T11:55:03.857Z,0.75
2022-09-10T11:57:40.076Z,0.88
2022-09-10T12:00:12.634Z,0.77
2022-09-10T12:03:39.781Z,0.80
2022-09-10T12:06:14.275Z,1.10
2022-09-10T12:08:56.111Z,14.07
2022-09-10T12:11:30.027Z,3.03
2022-09-10T12:13:59.479Z,1.95
2022-09-10T12:19:01.569Z,1.73
2022-09-10T12:21:34.337Z,1.17
2022-09-10T12:24:06.497Z,1.00
2022-09-10T12:26:42.766Z,2.13
2022-09-10T12:32:39.946Z,1.02
2022-09-10T12:35:46.630Z,0.88
2022-09-10T12:38:54.973Z,1.42
2022-09-10T12:41:58.149Z,1.20
2022-09-10T12:44:45.315Z,1.77
2022-09-10T12:47:51.007Z,1.35
2022-09-10T12:50:34.887Z,1.30
2022-09-10T12:53:41.933Z,0.93
2022-09-10T12:56:40.562Z,0.98
2022-09-10T12:59:33.184Z,0.90
2022-09-10T13:02:01.138Z,1.40
2022-09-10T13:04:33.621Z,1.20
2022-09-10T13:07:05.800Z,1.38
2022-09-10T13:09:37.285Z,2.08
2022-09-10T13:12:18.347Z,2.50
2022-09-10T13:14:48.426Z,2.17
2022-09-10T13:17:37.542Z,0.80
2022-09-10T13:20:30.442Z,1.00
2022-09-10T13:23:01.670Z,0.80
2022-09-10T13:25:39.803Z,0.80
2022-09-10T13:28:44.425Z,2.95
2022-09-10T13:31:18.723Z,1.67
2022-09-10T13:34:12.445Z,1.15
2022-09-10T13:36:48.309Z,0.95
2022-09-10T13:39:31.823Z,0.80
2022-09-10T13:42:35.466Z,0.90
2022-09-10T13:45:19.242Z,1.40
2022-09-10T13:47:51.445Z,1.70
2022-09-10T13:50:23.163Z,1.52
2022-09-10T13:52:56.908Z,1.20
2022-09-10T13:55:28.334Z,1.80
2022-09-10T13:58:00.895Z,1.90
2022-09-10T14:00:33.702Z,1.20
2022-09-10T14:03:01.781Z,3.40
2022-09-10T14:05:36.707Z,1.67
2022-09-10T14:08:11.999Z,1.08
2022-09-10T14:10:52.090Z,0.90
2022-09-10T14:13:24.383Z,1.25
2022-09-10T14:15:53.026Z,1.30
2022-09-10T14:18:22.144Z,1.67
2022-09-10T14:23:18.094Z,2.67
2022-09-10T14:25:46.137Z,1.70
2022-09-10T14:28:23.850Z,4.65
2022-09-10T14:30:52.478Z,2.30
2022-09-10T14:33:28.669Z,1.52
2022-09-10T14:35:58.244Z,2.30
2022-09-10T14:38:30.527Z,1.85
2022-09-10T14:41:04.306Z,1.48
2022-09-10T14:43:36.599Z,1.50
2022-09-10T14:48:37.194Z,1.73
2022-09-10T14:51:12.424Z,1.55
2022-09-10T14:53:42.343Z,1.70
2022-09-10T14:56:21.748Z,1.65
2022-09-10T14:58:55.660Z,1.23
2022-09-10T15:01:23.185Z,0.95
2022-09-10T15:03:50.691Z,1.52
2022-09-10T15:06:22.988Z,1.52
2022-09-10T15:08:56.323Z,1.17
2022-09-10T15:11:27.110Z,0.95
2022-09-10T15:13:56.644Z,1.23
2022-09-10T15:16:23.982Z,1.13
2022-09-10T15:18:51.598Z,1.35
2022-09-10T15:21:19.577Z,1.20
2022-09-10T15:23:48.428Z,1.67
2022-09-10T15:26:17.418Z,1.70
2022-09-10T15:28:44.857Z,2.15
2022-09-10T15:31:12.459Z,1.80
2022-09-10T15:33:40.300Z,2.05
2022-09-10T15:36:08.785Z,4.45
2022-09-10T15:38:36.754Z,5.53
2022-09-10T15:41:11.283Z,5.47
2022-09-10T15:43:43.176Z,3.28
2022-09-10T15:46:12.225Z,2.40
2022-09-10T15:48:40.365Z,2.13
2022-09-10T15:51:10.398Z,1.98
2022-09-10T15:53:39.863Z,1.60
2022-09-10T15:56:10.484Z,1.42
2022-09-10T15:58:38.411Z,1.80
2022-09-10T16:01:08.753Z,2.00
2022-09-10T16:03:36.322Z,2.63
2022-09-10T16:06:06.555Z,2.63
2022-09-10T16:08:34.386Z,3.85
2022-09-10T16:11:08.117Z,3.17
2022-09-10T16:13:39.274Z,4.47
2022-09-10T16:16:12.309Z,4.88
2022-09-10T16:18:40.374Z,4.85
2022-09-10T16:21:11.620Z,5.28
2022-09-10T16:23:43.840Z,4.70
2022-09-10T16:26:16.947Z,5.25
2022-09-10T16:28:49.518Z,5.13
2022-09-10T16:31:26.256Z,4.03
2022-09-10T16:33:56.709Z,3.22
2022-09-10T16:36:25.541Z,3.70
2022-09-10T16:38:54.696Z,3.15
2022-09-10T16:41:24.442Z,3.08
2022-09-10T16:43:55.735Z,3.00
2022-09-10T16:46:28.774Z,3.10
2022-09-10T16:49:01.142Z,3.60
2022-09-10T16:51:31.745Z,3.47
2022-09-10T16:54:02.620Z,3.80
2022-09-10T16:56:33.847Z,4.00
2022-09-10T16:59:01.431Z,4.43
2022-09-10T17:01:35.136Z,6.53
2022-09-10T17:04:04.687Z,5.47
2022-09-10T17:06:32.946Z,7.32
2022-09-10T17:09:02.158Z,8.05
2022-09-10T17:11:33.715Z,6.47
2022-09-10T17:14:01.574Z,5.80
2022-09-10T17:16:32.868Z,5.78
2022-09-10T17:19:02.719Z,3.88
2022-09-10T17:23:59.530Z,4.53
2022-09-10T17:26:29.061Z,3.78
2022-09-10T17:29:00.189Z,3.85
2022-09-10T17:31:31.018Z,6.53
2022-09-10T17:34:03.828Z,4.43
2022-09-10T17:36:34.531Z,5.18
2022-09-10T17:39:02.726Z,4.88
2022-09-10T17:41:31.399Z,5.35
2022-09-10T17:46:31.570Z,5.05
2022-09-10T17:49:07.401Z,4.25
2022-09-10T17:51:35.618Z,5.00
2022-09-10T17:54:06.679Z,5.03
2022-09-10T17:56:38.029Z,4.40
2022-09-10T17:59:12.774Z,4.97
2022-09-10T18:01:43.261Z,6.50
2022-09-10T18:04:13.106Z,7.60
2022-09-10T18:06:40.939Z,6.78
2022-09-10T18:09:08.779Z,6.38
2022-09-10T18:11:38.189Z,5.63
2022-09-10T18:14:06.276Z,5.90
2022-09-10T18:16:36.693Z,5.35
2022-09-10T18:19:13.749Z,5.07
2022-09-10T18:21:46.422Z,5.13
2022-09-10T18:24:17.478Z,6.28
2022-09-10T18:26:53.971Z,5.65
2022-09-10T18:29:22.980Z,7.25
2022-09-10T18:31:52.275Z,6.40
2022-09-10T18:34:23.196Z,6.72
2022-09-10T18:36:55.971Z,6.85
2022-09-10T18:39:28.508Z,5.22
2022-09-10T18:41:56.938Z,6.28
2022-09-10T18:44:26.865Z,7.13
2022-09-10T18:46:56.583Z,7.13
2022-09-10T18:49:26.305Z,6.65
2022-09-10T18:51:56.258Z,7.53
2022-09-10T18:54:25.001Z,8.30
2022-09-10T18:56:53.592Z,8.90
2022-09-10T18:59:23.310Z,10.95
2022-09-10T19:04:21.867Z,9.80
2022-09-10T19:06:50.293Z,12.63
2022-09-10T19:09:24.686Z,13.68
2022-09-10T19:11:55.091Z,11.43
2022-09-10T19:14:26.320Z,10.27
2022-09-10T19:16:55.196Z,11.07
2022-09-10T19:19:24.305Z,11.00
2022-09-10T19:21:54.307Z,9.82
2022-09-10T19:24:37.741Z,12.15
2022-09-10T19:27:11.685Z,12.80
2022-09-10T19:29:42.099Z,11.43
2022-09-10T19:32:11.614Z,9.82
2022-09-10T19:34:42.857Z,8.77
2022-09-10T19:37:10.127Z,7.88
2022-09-10T19:39:38.866Z,7.80
2022-09-10T19:42:06.982Z,8.70
2022-09-10T19:44:36.323Z,8.18
2022-09-10T19:47:04.815Z,7.57
2022-09-10T19:49:34.435Z,6.30
2022-09-10T19:52:04.291Z,6.93
2022-09-10T19:54:32.004Z,6.85
2022-09-10T19:57:00.594Z,7.15
2022-09-10T19:59:28.357Z,7.10
2022-09-10T20:01:56.029Z,7.20
2022-09-10T20:04:25.688Z,5.60
2022-09-10T20:06:53.818Z,5.78
2022-09-10T20:09:22.376Z,6.00
2022-09-10T20:11:50.154Z,5.68
2022-09-10T20:14:20.429Z,6.22
2022-09-10T20:16:48.439Z,5.22
2022-09-10T20:19:25.340Z,6.20
2022-09-10T20:21:53.040Z,6.57
2022-09-10T20:24:20.351Z,7.07
2022-09-10T20:26:49.134Z,6.97
2022-09-10T20:29:20.531Z,6.10
2022-09-10T20:31:48.617Z,6.43
2022-09-10T20:34:17.756Z,6.78
2022-09-10T20:36:45.452Z,6.47
2022-09-10T20:39:15.078Z,5.35
2022-09-10T20:41:43.091Z,5.60
2022-09-10T20:44:13.643Z,5.20
2022-09-10T20:46:42.819Z,5.88
2022-09-10T20:49:11.166Z,6.65
2022-09-10T20:51:40.655Z,6.30
2022-09-10T20:54:11.371Z,6.95
2022-09-10T20:56:38.802Z,5.93
2022-09-10T20:59:06.371Z,6.30
2022-09-10T21:01:34.130Z,5.50
2022-09-10T21:04:20.230Z,6.20
2022-09-10T21:06:48.945Z,5.85
2022-09-10T21:09:17.523Z,5.22
2022-09-10T21:14:13.630Z,5.45
2022-09-10T21:16:43.597Z,5.40
2022-09-10T21:19:14.128Z,5.63
2022-09-10T21:21:43.240Z,5.80
2022-09-10T21:24:14.228Z,3.97
2022-09-10T21:26:43.574Z,4.95
2022-09-10T21:29:14.314Z,5.97
2022-09-10T21:31:42.169Z,5.90
2022-09-10T21:34:10.069Z,7.30
2022-09-10T21:36:41.287Z,6.55
2022-09-10T21:39:13.595Z,6.13
2022-09-10T21:41:43.603Z,5.93
2022-09-10T21:44:14.358Z,5.65
2022-09-10T21:46:42.267Z,5.93
2022-09-10T21:49:09.898Z,5.82
2022-09-10T21:51:38.785Z,5.07
2022-09-10T21:54:06.541Z,5.60
2022-09-10T21:56:33.998Z,6.93
2022-09-10T21:59:02.028Z,6.45
2022-09-10T22:01:31.585Z,6.78
2022-09-10T22:04:00.675Z,6.32
2022-09-10T22:06:29.548Z,6.18
2022-09-10T22:09:00.409Z,6.00
2022-09-10T22:11:32.153Z,5.63
2022-09-10T22:14:01.279Z,6.45
2022-09-10T22:16:31.190Z,5.97
2022-09-10T22:21:28.935Z,6.40
2022-09-10T22:23:56.530Z,5.30
2022-09-10T22:26:30.299Z,5.85
2022-09-10T22:29:02.777Z,6.57
2022-09-10T22:31:32.363Z,5.40
2022-09-10T22:34:01.665Z,5.45
2022-09-10T22:36:31.648Z,5.60
2022-09-10T22:39:05.419Z,5.50
2022-09-10T22:41:35.737Z,5.97
2022-09-10T22:44:03.862Z,5.88
2022-09-10T22:46:33.133Z,5.95
2022-09-10T22:49:01.884Z,6.47
2022-09-10T22:51:31.021Z,6.07
2022-09-10T22:53:58.426Z,5.93
2022-09-10T22:56:27.263Z,5.18
2022-09-10T22:58:57.384Z,5.63
2022-09-10T23:01:27.841Z,5.50
2022-09-10T23:03:56.155Z,6.07
2022-09-10T23:06:27.058Z,5.25
2022-09-10T23:08:56.578Z,6.60
2022-09-10T23:11:26.202Z,8.30
2022-09-10T23:13:57.526Z,6.47
2022-09-10T23:16:28.986Z,6.00
2022-09-10T23:18:58.174Z,6.53
2022-09-10T23:21:27.902Z,5.15
2022-09-10T23:23:57.314Z,5.90
2022-09-10T23:26:25.617Z,5.30
2022-09-10T23:28:53.251Z,5.45
2022-09-10T23:31:25.053Z,5.47
2022-09-10T23:33:55.329Z,4.93
2022-09-10T23:36:23.131Z,5.82
2022-09-10T23:38:50.837Z,5.68
2022-09-10T23:41:19.208Z,6.30
2022-09-10T23:43:47.415Z,5.75
2022-09-10T23:46:15.942Z,6.75
2022-09-10T23:48:46.001Z,5.63
2022-09-10T23:51:15.780Z,5.47
2022-09-10T23:53:45.160Z,5.32
2022-09-10T23:56:12.601Z,4.72
2022-09-10T23:58:39.971Z,4.95
